Time;durP1;ratioP1;P1;durP2;ratioP2;P2;SDS_P1;SDS_P2;PMS_P1;PMS_P2;Temp;Humidity;BMP_temperature;BMP_pressure;BME280_temperature;BME280_humidity;BME280_pressure;Samples;Min_cycle;Max_cycle;Signal;HPM_P1;HPM_P2
2021/03/07 00:01:23;;;;;;;;;;;;;;;15.95;33.07;101008.19;4413605;32;20069;-47
2021/03/07 00:03:48;;;;;;;;;;;;;;;15.95;33.14;101011.69;4412285;32;19958;-48
2021/03/07 00:06:14;;;;;;;;;;;;;;;15.95;33.08;101009.06;4413522;32;20010;-47
2021/03/07 00:08:40;;;;;;;;;;;;;;;15.96;33.02;101002.97;4414512;32;19958;-51
2021/03/07 00:11:06;;;;;;;;;;;;;;;15.97;33.07;101010.03;4413341;32;19963;-45
2021/03/07 00:13:32;;;;;;;;;;;;;;;15.86;33.24;101008.66;4414001;32;19996;-48
2021/03/07 00:15:58;;;;;;;;;;;;;;;15.85;33.26;101012.12;4413537;32;20394;-46
2021/03/07 00:18:24;;;;;;;;;;;;;;;15.86;33.16;100999.06;4412777;32;19965;-47
2021/03/07 00:20:50;;;;;;;;;;;;;;;15.91;33.13;101012.41;4414000;32;19965;-48
2021/03/07 00:23:16;;;;;;;;;;;;;;;15.83;33.20;101008.53;4413940;32;19953;-44
2021/03/07 00:25:41;;;;;;;;;;;;;;;15.85;33.21;101012.12;4413865;32;19977;-47
2021/03/07 00:28:07;;;;;;;;;;;;;;;15.81;33.28;101004.94;4412563;32;20579;-46
2021/03/07 00:30:33;;;;;;;;;;;;;;;15.85;33.18;101012.12;4413989;32;20409;-45
2021/03/07 00:32:59;;;;;;;;;;;;;;;15.87;33.13;101007.84;4413098;32;19966;-46
2021/03/07 00:35:25;;;;;;;;;;;;;;;15.81;33.15;101010.19;4414206;32;19958;-45
2021/03/07 00:37:51;;;;;;;;;;;;;;;15.85;33.09;101007.78;4413730;32;19958;-47
2021/03/07 00:40:17;;;;;;;;;;;;;;;15.69;33.42;101000.97;4412200;32;19973;-48
2021/03/07 00:42:43;;;;;;;;;;;;;;;15.85;33.08;101006.84;4409060;32;19977;-48
2021/03/07 00:45:09;;;;;;;;;;;;;;;15.79;33.23;101006.63;4412566;32;19961;-48
2021/03/07 00:47:34;;;;;;;;;;;;;;;15.78;33.23;101007.47;4409820;32;19981;-47
2021/03/07 00:50:00;;;;;;;;;;;;;;;15.76;33.27;101001.25;4414120;32;19950;-51
2021/03/07 00:52:26;;;;;;;;;;;;;;;15.81;33.13;101004.94;4412464;32;20579;-47
2021/03/07 00:54:52;;;;;;;;;;;;;;;15.77;33.24;101003.91;4413647;32;19950;-48
2021/03/07 00:57:18;;;;;;;;;;;;;;;15.73;33.32;101002.87;4412608;32;19962;-46
2021/03/07 00:59:44;;;;;;;;;;;;;;;15.67;33.34;100997.41;4413621;32;19998;-45
2021/03/07 01:02:10;;;;;;;;;;;;;;;15.68;33.36;100988.69;4412429;32;19958;-44
2021/03/07 01:04:35;;;;;;;;;;;;;;;15.68;33.33;100996.56;4414267;32;20343;-44
2021/03/07 01:07:02;;;;;;;;;;;;;;;15.73;33.23;100992.38;4412826;32;19985;-46
2021/03/07 01:09:28;;;;;;;;;;;;;;;15.75;33.23;100979.31;4407729;32;19981;-48
2021/03/07 01:11:54;;;;;;;;;;;;;;;15.68;33.33;100978.19;4402536;32;19981;-48
2021/03/07 01:14:20;;;;;;;;;;;;;;;15.73;33.25;100971.38;4418098;32;19972;-46
2021/03/07 01:16:46;;;;;;;;;;;;;;;15.56;33.47;100970.72;4408258;32;19962;-45
2021/03/07 01:19:12;;;;;;;;;;;;;;;15.58;33.44;100974.28;4399107;32;20396;-45
2021/03/07 01:21:38;;;;;;;;;;;;;;;15.56;33.54;100972.41;4399857;32;19959;-49
2021/03/07 01:24:03;;;;;;;;;;;;;;;15.57;33.51;100974.22;4401517;32;20408;-49
2021/03/07 01:26:29;;;;;;;;;;;;;;;15.54;33.51;100964.47;4401564;32;19968;-49
2021/03/07 01:28:55;;;;;;;;;;;;;;;15.46;33.63;100972.03;4411849;32;19970;-49
2021/03/07 01:31:21;;;;;;;;;;;;;;;15.46;33.65;100958.91;4411284;32;19965;-48
2021/03/07 01:33:47;;;;;;;;;;;;;;;15.44;33.68;100963.19;4405832;32;20051;-49
2021/03/07 01:36:13;;;;;;;;;;;;;;;15.49;33.62;100954.59;4428484;32;19976;-45
2021/03/07 01:38:39;;;;;;;;;;;;;;;15.51;33.53;100958.22;4414797;32;20305;-51
2021/03/07 01:41:05;;;;;;;;;;;;;;;15.43;33.65;100945.66;4416153;32;19992;-46
2021/03/07 01:43:31;;;;;;;;;;;;;;;15.41;33.69;100947.31;4412765;32;19962;-44
2021/03/07 01:45:57;;;;;;;;;;;;;;;15.43;33.69;100945.66;4410757;32;20017;-45
2021/03/07 01:48:22;;;;;;;;;;;;;;;15.40;33.69;100934.12;4415472;32;20455;-47
2021/03/07 01:50:48;;;;;;;;;;;;;;;15.46;33.59;100929.16;4421785;32;20008;-47
2021/03/07 01:53:14;;;;;;;;;;;;;;;15.55;33.43;100920.75;4413283;32;19962;-46
2021/03/07 01:55:40;;;;;;;;;;;;;;;15.48;33.50;100922.22;4408347;32;19957;-48
2021/03/07 01:58:06;;;;;;;;;;;;;;;15.48;33.48;100913.44;4415228;32;19954;-49
2021/03/07 02:00:32;;;;;;;;;;;;;;;15.55;33.40;100905.00;4417768;32;19977;-44
2021/03/07 02:02:58;;;;;;;;;;;;;;;15.58;33.29;100913.00;4406578;32;20306;-46
2021/03/07 02:05:24;;;;;;;;;;;;;;;15.55;33.31;100908.50;4415113;32;19965;-48
2021/03/07 02:07:50;;;;;;;;;;;;;;;15.40;33.58;100898.28;4413982;32;20363;-47
2021/03/07 02:10:15;;;;;;;;;;;;;;;15.42;33.56;100901.87;4417527;32;20350;-46
2021/03/07 02:12:41;;;;;;;;;;;;;;;15.41;33.54;100905.34;4414147;32;19997;-45
2021/03/07 02:15:07;;;;;;;;;;;;;;;15.55;33.32;100894.50;4416513;32;19962;-45
2021/03/07 02:17:33;;;;;;;;;;;;;;;15.43;33.50;100893.16;4419848;32;19969;-49
2021/03/07 02:19:59;;;;;;;;;;;;;;;15.56;33.32;100893.66;4419159;32;19996;-48
2021/03/07 02:22:25;;;;;;;;;;;;;;;15.54;33.34;100890.97;4421600;32;19954;-45
2021/03/07 02:24:51;;;;;;;;;;;;;;;15.47;33.44;100891.56;4422438;32;20327;-49
2021/03/07 02:27:17;;;;;;;;;;;;;;;15.52;33.36;100887.38;4423555;32;19978;-48
2021/03/07 02:29:42;;;;;;;;;;;;;;;15.43;33.50;100885.28;4415884;32;19966;-45
2021/03/07 02:32:08;;;;;;;;;;;;;;;15.49;33.38;100881.09;4418913;32;20332;-44
2021/03/07 02:34:34;;;;;;;;;;;;;;;15.37;33.58;100871.94;4419216;32;19977;-45
2021/03/07 02:37:00;;;;;;;;;;;;;;;15.36;33.57;100880.59;4419869;32;19950;-48
2021/03/07 02:39:26;;;;;;;;;;;;;;;15.43;33.46;100873.88;4422476;32;19950;-49
2021/03/07 02:41:52;;;;;;;;;;;;;;;15.38;33.47;100871.09;4417453;32;20336;-47
2021/03/07 02:44:18;;;;;;;;;;;;;;;15.39;33.51;100869.34;4418895;32;19977;-44
2021/03/07 02:46:44;;;;;;;;;;;;;;;15.39;33.52;100858.84;4418791;32;20023;-47
2021/03/07 02:49:09;;;;;;;;;;;;;;;15.56;33.29;100862.16;4421337;32;19984;-45
2021/03/07 02:51:35;;;;;;;;;;;;;;;15.59;33.17;100860.56;4421569;32;19974;-46
2021/03/07 02:54:01;;;;;;;;;;;;;;;15.65;33.07;100851.13;4416864;32;19978;-46
2021/03/07 02:56:27;;;;;;;;;;;;;;;15.62;33.10;100851.91;4418330;32;19990;-48
2021/03/07 02:58:59;;;;;;;;;;;;;;;15.58;33.13;100855.25;4421548;32;19973;-48
2021/03/07 03:01:25;;;;;;;;;;;;;;;15.61;33.06;100852.72;4418059;32;19989;-45
2021/03/07 03:03:51;;;;;;;;;;;;;;;15.54;33.21;100840.22;4418933;32;20370;-47
2021/03/07 03:06:17;;;;;;;;;;;;;;;15.51;33.27;100842.72;4418825;32;19968;-48
2021/03/07 03:08:42;;;;;;;;;;;;;;;15.60;33.11;100843.06;4422306;32;20351;-44
2021/03/07 03:11:08;;;;;;;;;;;;;;;15.58;33.09;100840.41;4415193;32;19958;-50
2021/03/07 03:13:34;;;;;;;;;;;;;;;15.50;33.27;100846.19;4415221;32;19962;-48
2021/03/07 03:16:00;;;;;;;;;;;;;;;15.56;33.15;100843.78;4412536;32;20005;-47
2021/03/07 03:18:26;;;;;;;;;;;;;;;15.45;33.32;100832.88;4415347;32;19951;-47
2021/03/07 03:20:52;;;;;;;;;;;;;;;15.31;33.54;100838.47;4415556;32;19977;-47
2021/03/07 03:23:18;;;;;;;;;;;;;;;15.28;33.60;100845.31;4414639;32;20027;-46
2021/03/07 03:25:44;;;;;;;;;;;;;;;15.32;33.55;100841.97;4415351;32;20000;-49
2021/03/07 03:28:09;;;;;;;;;;;;;;;15.27;33.66;100839.16;4414799;32;20043;-50
2021/03/07 03:30:35;;;;;;;;;;;;;;;15.24;33.70;100846.91;4414502;32;19958;-45
2021/03/07 03:33:01;;;;;;;;;;;;;;;15.25;33.67;100834.66;4415226;32;19962;-47
2021/03/07 03:35:27;;;;;;;;;;;;;;;15.23;33.66;100841.56;4415351;32;19945;-49
2021/03/07 03:37:53;;;;;;;;;;;;;;;15.22;33.70;100840.69;4414820;32;19997;-49
2021/03/07 03:40:19;;;;;;;;;;;;;;;15.26;33.62;100839.09;4415053;32;19980;-47
2021/03/07 03:42:45;;;;;;;;;;;;;;;15.23;33.64;100836.34;4412705;32;19954;-47
2021/03/07 03:45:11;;;;;;;;;;;;;;;15.27;33.60;100838.28;4412520;32;20342;-44
2021/03/07 03:47:37;;;;;;;;;;;;;;;15.30;33.52;100836.63;4414475;32;19961;-47
2021/03/07 03:50:02;;;;;;;;;;;;;;;15.24;33.60;100835.50;4415017;32;20472;-46
2021/03/07 03:52:28;;;;;;;;;;;;;;;15.31;33.50;100834.94;4414969;32;19954;-45
2021/03/07 03:54:54;;;;;;;;;;;;;;;15.33;33.42;100838.50;4410661;32;19989;-46
2021/03/07 03:57:21;;;;;;;;;;;;;;;15.35;33.41;100830.69;4414737;32;19962;-44
2021/03/07 03:59:47;;;;;;;;;;;;;;;15.33;33.41;100838.50;4412547;32;20081;-47
2021/03/07 04:02:12;;;;;;;;;;;;;;;15.43;33.25;100835.41;4412791;32;19977;-48
2021/03/07 04:04:38;;;;;;;;;;;;;;;15.34;33.37;100829.78;4411352;32;20620;-50
2021/03/07 04:07:04;;;;;;;;;;;;;;;15.46;33.18;100829.41;4412616;32;19993;-51
2021/03/07 04:09:30;;;;;;;;;;;;;;;15.39;33.24;100830.91;4410358;32;19951;-46
2021/03/07 04:11:56;;;;;;;;;;;;;;;15.44;33.18;100828.47;4412173;32;19993;-45
2021/03/07 04:14:22;;;;;;;;;;;;;;;15.53;33.01;100831.44;4409572;32;20343;-45
2021/03/07 04:16:48;;;;;;;;;;;;;;;15.43;33.18;100824.00;4412877;32;19978;-51
2021/03/07 04:19:14;;;;;;;;;;;;;;;15.50;33.08;100825.19;4404734;32;20429;-46
2021/03/07 04:21:40;;;;;;;;;;;;;;;15.42;33.17;100825.75;4414867;32;20058;-52
2021/03/07 04:24:06;;;;;;;;;;;;;;;15.45;33.12;100823.25;4413580;32;20280;-44
2021/03/07 04:26:31;;;;;;;;;;;;;;;15.30;33.37;100823.53;4421468;32;19954;-48
2021/03/07 04:28:57;;;;;;;;;;;;;;;15.22;33.50;100831.91;4427304;32;20378;-49
2021/03/07 04:31:23;;;;;;;;;;;;;;;15.26;33.39;100826.87;4400548;32;20041;-48
2021/03/07 04:33:49;;;;;;;;;;;;;;;15.31;33.35;100834.94;4409565;32;19998;-46
2021/03/07 04:36:15;;;;;;;;;;;;;;;15.36;33.26;100828.12;4413448;32;19958;-49
2021/03/07 04:38:41;;;;;;;;;;;;;;;15.32;33.27;100824.50;4412927;32;19974;-46
2021/03/07 04:41:07;;;;;;;;;;;;;;;15.30;33.31;100825.25;4413808;32;20057;-46
2021/03/07 04:43:33;;;;;;;;;;;;;;;15.31;33.29;100827.06;4428066;32;20813;-48
2021/03/07 04:45:59;;;;;;;;;;;;;;;15.26;33.35;100836.47;4421652;32;19958;-46
2021/03/07 04:48:27;;;;;;;;;;;;;;;15.15;33.54;100829.06;4415455;32;20361;-48
2021/03/07 04:50:53;;;;;;;;;;;;;;;15.04;33.72;100825.09;4416597;32;19948;-49
2021/03/07 04:53:19;;;;;;;;;;;;;;;15.01;33.75;100830.22;4417410;32;19989;-48
2021/03/07 04:55:45;;;;;;;;;;;;;;;15.05;33.68;100826.87;4417307;32;19973;-46
2021/03/07 04:58:11;;;;;;;;;;;;;;;15.18;33.48;100828.25;4416480;32;19950;-51
2021/03/07 05:00:37;;;;;;;;;;;;;;;15.26;33.36;100826.87;4417651;32;19965;-47
2021/03/07 05:03:03;;;;;;;;;;;;;;;15.29;33.29;100828.72;4420087;32;19965;-45
2021/03/07 05:05:29;;;;;;;;;;;;;;;15.22;33.33;100829.28;4417431;32;20012;-45
2021/03/07 05:07:55;;;;;;;;;;;;;;;15.05;33.60;100821.62;4417899;32;19970;-46
2021/03/07 05:10:21;;;;;;;;;;;;;;;14.94;33.82;100817.66;4416903;32;19958;-48
2021/03/07 05:12:47;;;;;;;;;;;;;;;15.04;33.70;100825.09;4418503;32;19989;-45
2021/03/07 05:15:13;;;;;;;;;;;;;;;15.03;33.69;100818.94;4417779;32;20260;-47
2021/03/07 05:17:38;;;;;;;;;;;;;;;15.10;33.52;100814.84;4419193;32;19962;-44
2021/03/07 05:20:04;;;;;;;;;;;;;;;15.04;33.61;100818.09;4416688;32;20290;-48
2021/03/07 05:22:30;;;;;;;;;;;;;;;15.08;33.47;100816.50;4419751;32;19957;-48
2021/03/07 05:24:56;;;;;;;;;;;;;;;15.03;33.64;100812.81;4420943;32;19979;-44
2021/03/07 05:27:22;;;;;;;;;;;;;;;14.95;33.74;100820.37;4408637;32;20100;-51
2021/03/07 05:29:48;;;;;;;;;;;;;;;15.06;33.60;100822.50;4417406;32;19958;-45
2021/03/07 05:32:14;;;;;;;;;;;;;;;15.01;33.61;100825.84;4423678;32;20329;-49
2021/03/07 05:34:40;;;;;;;;;;;;;;;14.97;33.64;100823.94;4421039;32;19950;-53
2021/03/07 05:37:05;;;;;;;;;;;;;;;15.03;33.53;100818.94;4419689;32;19957;-49
2021/03/07 05:39:31;;;;;;;;;;;;;;;15.01;33.55;100820.59;4420694;32;19958;-49
2021/03/07 05:41:57;;;;;;;;;;;;;;;15.12;33.44;100817.53;4417504;32;19954;-52
2021/03/07 05:44:23;;;;;;;;;;;;;;;15.11;33.33;100815.75;4420833;32;20394;-45
2021/03/07 05:46:49;;;;;;;;;;;;;;;15.12;33.33;100823.66;4417500;32;19962;-50
2021/03/07 05:49:15;;;;;;;;;;;;;;;15.10;33.42;100819.22;4419806;32;20017;-45
2021/03/07 05:51:41;;;;;;;;;;;;;;;15.24;33.15;100817.13;4419481;32;20282;-44
2021/03/07 05:54:07;;;;;;;;;;;;;;;15.16;33.27;100816.81;4408223;32;19992;-50
2021/03/07 05:56:33;;;;;;;;;;;;;;;15.16;33.25;100815.09;4403184;32;19955;-47
2021/03/07 05:58:59;;;;;;;;;;;;;;;15.20;33.21;100817.84;4405850;32;19950;-45
2021/03/07 06:01:25;;;;;;;;;;;;;;;15.13;33.29;100819.31;4403970;32;19972;-45
2021/03/07 06:03:50;;;;;;;;;;;;;;;15.11;33.35;100821.88;4410582;32;20004;-53
2021/03/07 06:06:16;;;;;;;;;;;;;;;15.17;33.25;100818.59;4411203;32;19954;-48
2021/03/07 06:08:42;;;;;;;;;;;;;;;15.08;33.36;100816.50;4417236;32;19954;-50
2021/03/07 06:11:08;;;;;;;;;;;;;;;15.08;33.36;100816.50;4417258;32;19994;-44
2021/03/07 06:13:34;;;;;;;;;;;;;;;15.17;33.20;100811.66;4418618;32;19968;-46
2021/03/07 06:16:00;;;;;;;;;;;;;;;15.11;33.29;100819.25;4413211;32;20343;-49
2021/03/07 06:18:26;;;;;;;;;;;;;;;15.03;33.41;100807.56;4409658;32;20002;-45
2021/03/07 06:20:52;;;;;;;;;;;;;;;15.04;33.39;100815.47;4422980;32;19976;-51
2021/03/07 06:23:18;;;;;;;;;;;;;;;15.11;33.29;100811.38;4414142;32;20282;-48
2021/03/07 06:25:44;;;;;;;;;;;;;;;15.12;33.24;100815.78;4416093;32;20722;-49
2021/03/07 06:28:09;;;;;;;;;;;;;;;15.04;33.40;100809.34;4422649;32;19972;-49
2021/03/07 06:30:35;;;;;;;;;;;;;;;14.94;33.60;100812.41;4414761;32;19972;-46
2021/03/07 06:33:01;;;;;;;;;;;;;;;15.06;33.48;100812.94;4415997;32;20082;-44
2021/03/07 06:35:27;;;;;;;;;;;;;;;15.07;33.50;100813.84;4414944;32;20335;-46
2021/03/07 06:37:53;;;;;;;;;;;;;;;15.08;33.59;100811.25;4415436;32;20354;-48
2021/03/07 06:40:19;;;;;;;;;;;;;;;15.16;33.59;100809.84;4418299;32;19976;-46
2021/03/07 06:42:45;;;;;;;;;;;;;;;15.27;33.42;100815.53;4416837;32;20326;-47
2021/03/07 06:45:11;;;;;;;;;;;;;;;15.29;33.26;100813.84;4418588;32;19962;-49
2021/03/07 06:47:37;;;;;;;;;;;;;;;15.36;33.15;100812.38;4419867;32;19996;-51
2021/03/07 06:50:03;;;;;;;;;;;;;;;15.37;33.11;100813.28;4418757;32;19958;-46
2021/03/07 06:52:29;;;;;;;;;;;;;;;15.24;33.26;100806.63;4420436;32;19957;-44
2021/03/07 06:54:55;;;;;;;;;;;;;;;15.20;33.35;100809.97;4421489;32;20010;-45
2021/03/07 06:57:20;;;;;;;;;;;;;;;15.23;33.39;100804.84;4416778;32;19955;-44
2021/03/07 06:59:48;;;;;;;;;;;;;;;15.15;33.36;100796.66;4422877;32;19962;-45
2021/03/07 07:02:14;;;;;;;;;;;;;;;15.23;33.40;100799.59;4417719;32;19989;-46
2021/03/07 07:04:40;;;;;;;;;;;;;;;15.33;33.22;100801.75;4420162;32;20010;-44
2021/03/07 07:07:06;;;;;;;;;;;;;;;15.41;33.13;100804.69;4418971;32;19969;-47
2021/03/07 07:09:32;;;;;;;;;;;;;;;15.51;32.87;100803.34;4422522;32;19969;-50
2021/03/07 07:11:58;;;;;;;;;;;;;;;15.49;32.87;100799.75;4421722;32;20316;-51
2021/03/07 07:14:24;;;;;;;;;;;;;;;15.52;32.94;100798.12;4419816;32;20040;-46
2021/03/07 07:16:50;;;;;;;;;;;;;;;15.55;32.81;100798.25;4417011;32;19984;-47
2021/03/07 07:19:15;;;;;;;;;;;;;;;15.40;33.01;100801.19;4416851;32;19953;-46
2021/03/07 07:21:41;;;;;;;;;;;;;;;15.35;33.17;100794.84;4417861;32;19962;-46
2021/03/07 07:24:07;;;;;;;;;;;;;;;15.24;33.33;100797.03;4416564;32;19997;-46
2021/03/07 07:26:33;;;;;;;;;;;;;;;15.36;33.13;100796.63;4414156;32;19993;-47
2021/03/07 07:28:59;;;;;;;;;;;;;;;15.30;33.26;100791.16;4414725;32;20017;-51
2021/03/07 07:31:25;;;;;;;;;;;;;;;15.26;33.28;100791.88;4413742;32;19972;-46
2021/03/07 07:33:51;;;;;;;;;;;;;;;15.32;33.22;100794.72;4415981;32;20384;-49
2021/03/07 07:36:17;;;;;;;;;;;;;;;15.39;33.05;100794.16;4414085;32;20072;-45
2021/03/07 07:38:43;;;;;;;;;;;;;;;15.39;33.07;100791.53;4414189;32;19970;-49
2021/03/07 07:41:09;;;;;;;;;;;;;;;15.36;33.21;100786.13;4413619;32;19966;-52
2021/03/07 07:43:35;;;;;;;;;;;;;;;15.27;33.32;100791.03;4414008;32;19995;-46
2021/03/07 07:46:01;;;;;;;;;;;;;;;15.30;33.27;100789.41;4414142;32;19954;-45
2021/03/07 07:48:27;;;;;;;;;;;;;;;15.39;33.19;100786.28;4413367;32;20071;-46
2021/03/07 07:50:53;;;;;;;;;;;;;;;15.48;33.03;100783.13;4414520;32;19981;-48
2021/03/07 07:53:19;;;;;;;;;;;;;;;15.54;32.93;100785.97;4413854;32;19961;-50
2021/03/07 07:55:45;;;;;;;;;;;;;;;15.60;32.83;100791.47;4413056;32;20319;-51
2021/03/07 07:58:10;;;;;;;;;;;;;;;15.65;32.81;100789.03;4412181;32;19989;-53
2021/03/07 08:00:36;;;;;;;;;;;;;;;15.61;32.92;100784.47;4414225;32;19954;-50
2021/03/07 08:03:02;;;;;;;;;;;;;;;15.65;32.82;100777.59;4412975;32;20045;-49
2021/03/07 08:05:29;;;;;;;;;;;;;;;15.67;32.85;100786.44;4419243;32;20521;-48
2021/03/07 08:07:55;;;;;;;;;;;;;;;15.62;32.86;100778.41;4428329;32;19992;-50
2021/03/07 08:10:20;;;;;;;;;;;;;;;15.52;33.01;100786.75;4427498;32;19997;-53
2021/03/07 08:12:47;;;;;;;;;;;;;;;15.37;33.29;100782.69;4428938;32;19954;-45
2021/03/07 08:15:13;;;;;;;;;;;;;;;15.42;33.29;100778.50;4426293;32;19958;-48
2021/03/07 08:17:39;;;;;;;;;;;;;;;15.50;33.08;100775.31;4427700;32;20039;-52
2021/03/07 08:20:05;;;;;;;;;;;;;;;15.53;33.06;100778.91;4422818;32;19968;-44
2021/03/07 08:22:31;;;;;;;;;;;;;;;15.51;33.10;100766.59;4429254;32;19949;-46
2021/03/07 08:24:57;;;;;;;;;;;;;;;15.40;33.22;100769.69;4427971;32;20264;-46
2021/03/07 08:27:23;;;;;;;;;;;;;;;15.48;33.23;100769.06;4412330;32;20033;-50
2021/03/07 08:29:49;;;;;;;;;;;;;;;15.45;33.23;100760.25;4425658;32;19972;-46
2021/03/07 08:32:15;;;;;;;;;;;;;;;15.50;33.19;100754.31;4428168;32;20402;-45
2021/03/07 08:34:41;;;;;;;;;;;;;;;15.52;33.14;100750.00;4433327;32;19981;-49
2021/03/07 08:37:07;;;;;;;;;;;;;;;15.55;33.18;100747.50;4432681;32;20003;-45
2021/03/07 08:39:33;;;;;;;;;;;;;;;15.56;33.12;100751.91;4432899;32;19970;-50
2021/03/07 08:41:59;;;;;;;;;;;;;;;15.56;33.13;100758.06;4433780;32;20035;-46
2021/03/07 08:44:25;;;;;;;;;;;;;;;15.58;33.14;100755.47;4430306;32;19951;-47
2021/03/07 08:46:51;;;;;;;;;;;;;;;15.56;33.18;100742.31;4424405;32;20326;-48
2021/03/07 08:49:17;;;;;;;;;;;;;;;15.60;33.07;100743.28;4433318;32;19961;-50
2021/03/07 08:51:44;;;;;;;;;;;;;;;15.59;33.10;100745.03;4430971;32;19976;-48
2021/03/07 08:54:10;;;;;;;;;;;;;;;15.57;33.19;100749.34;4431469;32;20017;-51
2021/03/07 08:56:37;;;;;;;;;;;;;;;15.54;33.25;100738.72;4430338;32;19958;-47
2021/03/07 08:59:03;;;;;;;;;;;;;;;15.55;33.18;100744.88;4432763;32;20013;-49
2021/03/07 09:01:29;;;;;;;;;;;;;;;15.57;33.15;100743.19;4430211;32;19992;-49
2021/03/07 09:03:55;;;;;;;;;;;;;;;15.60;33.17;100738.97;4426617;32;19965;-54
2021/03/07 09:06:21;;;;;;;;;;;;;;;15.59;33.14;100736.25;4429102;32;19977;-51
2021/03/07 09:08:47;;;;;;;;;;;;;;;15.66;33.06;100730.41;4429476;32;20385;-46
2021/03/07 09:11:13;;;;;;;;;;;;;;;15.71;32.98;100725.34;4427552;32;20313;-46
2021/03/07 09:13:39;;;;;;;;;;;;;;;15.74;32.98;100709.69;4426377;32;19997;-50
2021/03/07 09:16:05;;;;;;;;;;;;;;;15.75;32.94;100716.72;4430091;32;19954;-49
2021/03/07 09:18:31;;;;;;;;;;;;;;;15.72;32.98;100712.25;4432167;32;19998;-51
2021/03/07 09:20:57;;;;;;;;;;;;;;;15.75;32.97;100711.47;4430852;32;19962;-49
2021/03/07 09:23:23;;;;;;;;;;;;;;;15.74;32.96;100705.34;4428267;32;20489;-50
2021/03/07 09:25:48;;;;;;;;;;;;;;;15.79;32.92;100702.88;4427949;32;19989;-48
2021/03/07 09:28:14;;;;;;;;;;;;;;;15.86;32.81;100698.72;4428569;32;19993;-51
2021/03/07 09:30:40;;;;;;;;;;;;;;;15.81;32.96;100697.69;4430170;32;19957;-49
2021/03/07 09:33:06;;;;;;;;;;;;;;;15.83;32.91;100696.91;4432029;32;20010;-51
2021/03/07 09:35:34;;;;;;;;;;;;;;;15.81;32.90;100685.47;4427889;32;20001;-50
2021/03/07 09:38:00;;;;;;;;;;;;;;;15.78;33.02;100673.94;4428171;32;19958;-50
2021/03/07 09:40:26;;;;;;;;;;;;;;;15.84;32.94;100669.81;4429117;32;19987;-48
2021/03/07 09:42:52;;;;;;;;;;;;;;;15.90;32.87;100661.28;4432861;32;20000;-50
2021/03/07 09:45:18;;;;;;;;;;;;;;;15.87;32.89;100663.78;4429879;32;20615;-48
2021/03/07 09:47:44;;;;;;;;;;;;;;;15.87;32.93;100656.78;4427606;32;20011;-48
2021/03/07 09:50:10;;;;;;;;;;;;;;;15.97;32.78;100651.88;4429825;32;19962;-45
2021/03/07 09:52:36;;;;;;;;;;;;;;;15.97;32.76;100655.38;4425683;32;19997;-46
2021/03/07 09:55:02;;;;;;;;;;;;;;;16.05;32.59;100646.91;4424103;32;20586;-50
2021/03/07 09:57:28;;;;;;;;;;;;;;;16.02;32.74;100643.31;4423204;32;20457;-50
2021/03/07 09:59:54;;;;;;;;;;;;;;;16.08;32.69;100641.75;4420401;32;20004;-49
2021/03/07 10:02:20;;;;;;;;;;;;;;;16.05;32.68;100645.19;4410923;32;19954;-50
2021/03/07 10:04:46;;;;;;;;;;;;;;;16.06;32.70;100644.34;4418201;32;20335;-53
2021/03/07 10:07:45;;;;;;;;;;;;;;;16.07;32.72;100642.59;4423901;32;19954;-51
2021/03/07 10:10:05;;;;;;;;;;;;;;;16.01;32.83;100638.91;4427037;32;19990;-48
2021/03/07 10:12:31;;;;;;;;;;;;;;;16.05;32.90;100637.28;4428891;32;20403;-53
2021/03/07 10:14:57;;;;;;;;;;;;;;;16.11;32.74;100636.59;4413331;32;19970;-53
2021/03/07 10:17:23;;;;;;;;;;;;;;;16.13;32.69;100635.81;4413946;32;20037;-49
2021/03/07 10:19:50;;;;;;;;;;;;;;;16.14;32.68;100632.34;4420076;32;19955;-48
2021/03/07 10:22:16;;;;;;;;;;;;;;;16.14;32.66;100636.72;4417773;32;19974;-49
2021/03/07 10:24:41;;;;;;;;;;;;;;;16.15;32.81;100633.25;4418089;32;20373;-46
2021/03/07 10:27:07;;;;;;;;;;;;;;;16.16;32.70;100627.13;4418020;32;20101;-46
2021/03/07 10:29:33;;;;;;;;;;;;;;;16.14;32.73;100636.72;4420537;32;20029;-47
2021/03/07 10:31:59;;;;;;;;;;;;;;;16.18;32.70;100632.47;4424004;32;20001;-46
2021/03/07 10:34:25;;;;;;;;;;;;;;;16.20;32.75;100634.28;4425921;32;19977;-49
2021/03/07 10:36:51;;;;;;;;;;;;;;;16.23;32.60;100634.38;4409808;32;19973;-52
2021/03/07 10:39:17;;;;;;;;;;;;;;;16.14;32.52;100631.47;4411172;32;19990;-49
2021/03/07 10:41:43;;;;;;;;;;;;;;;16.20;32.63;100631.66;4404436;32;20340;-47
2021/03/07 10:44:09;;;;;;;;;;;;;;;16.15;32.59;100618.34;4402925;32;20046;-46
2021/03/07 10:46:34;;;;;;;;;;;;;;;16.19;32.68;100616.72;4407625;32;19989;-45
2021/03/07 10:49:00;;;;;;;;;;;;;;;16.20;32.73;100621.13;4404050;32;19958;-45
2021/03/07 10:51:26;;;;;;;;;;;;;;;16.20;32.83;100621.13;4419830;32;20360;-48
2021/03/07 10:53:53;;;;;;;;;;;;;;;16.18;32.83;100616.69;4428449;32;20001;-47
2021/03/07 10:56:18;;;;;;;;;;;;;;;16.23;32.74;100620.34;4426190;32;20346;-47
2021/03/07 10:58:44;;;;;;;;;;;;;;;16.25;32.75;100614.31;4428349;32;20016;-46
2021/03/07 11:01:10;;;;;;;;;;;;;;;16.28;32.70;100614.41;4428671;32;20342;-48
2021/03/07 11:03:36;;;;;;;;;;;;;;;16.35;32.59;100614.59;4424148;32;19981;-47
2021/03/07 11:06:02;;;;;;;;;;;;;;;16.36;32.58;100611.13;4425171;32;19977;-52
2021/03/07 11:08:28;;;;;;;;;;;;;;;16.28;32.76;100614.41;4422905;32;20005;-46
2021/03/07 11:10:54;;;;;;;;;;;;;;;16.29;32.60;100605.69;4428801;32;19949;-46
2021/03/07 11:13:20;;;;;;;;;;;;;;;16.30;32.56;100596.94;4422392;32;19954;-51
2021/03/07 11:15:45;;;;;;;;;;;;;;;16.28;32.43;100603.91;4427101;32;20009;-48
2021/03/07 11:18:12;;;;;;;;;;;;;;;16.32;32.62;100598.72;4425339;32;19954;-49
2021/03/07 11:20:38;;;;;;;;;;;;;;;16.38;32.65;100594.56;4427724;32;19957;-52
2021/03/07 11:23:03;;;;;;;;;;;;;;;16.39;32.62;100591.09;4424722;32;20017;-49
2021/03/07 11:25:29;;;;;;;;;;;;;;;16.34;32.83;100583.91;4429082;32;19967;-53
2021/03/07 11:27:55;;;;;;;;;;;;;;;16.25;32.97;100582.78;4425356;32;19987;-52
2021/03/07 11:30:21;;;;;;;;;;;;;;;16.40;32.79;100573.59;4424825;32;19958;-50
2021/03/07 11:32:47;;;;;;;;;;;;;;;16.45;32.67;100579.87;4424211;32;19961;-53
2021/03/07 11:35:13;;;;;;;;;;;;;;;16.52;32.50;100576.63;4423299;32;19995;-50
2021/03/07 11:37:39;;;;;;;;;;;;;;;16.50;32.52;100567.78;4423343;32;19994;-53
2021/03/07 11:40:05;;;;;;;;;;;;;;;16.41;32.76;100573.63;4422657;32;19994;-50
2021/03/07 11:42:31;;;;;;;;;;;;;;;16.43;32.79;100573.69;4426113;32;20028;-50
2021/03/07 11:44:57;;;;;;;;;;;;;;;16.40;32.75;100563.97;4425203;32;19950;-51
2021/03/07 11:47:23;;;;;;;;;;;;;;;16.36;32.85;100562.09;4427982;32;20033;-47
2021/03/07 11:49:49;;;;;;;;;;;;;;;16.34;32.80;100555.91;4421925;32;20065;-49
2021/03/07 11:52:15;;;;;;;;;;;;;;;16.34;32.47;100555.00;4427583;32;20031;-50
2021/03/07 11:54:41;;;;;;;;;;;;;;;16.30;32.75;100554.03;4427418;32;19950;-50
2021/03/07 11:57:07;;;;;;;;;;;;;;;16.44;32.56;100554.44;4420956;32;20019;-48
2021/03/07 11:59:33;;;;;;;;;;;;;;;16.48;32.45;100543.16;4429113;32;20057;-48
2021/03/07 12:01:59;;;;;;;;;;;;;;;16.51;32.35;100545.91;4427172;32;19954;-51
2021/03/07 12:04:25;;;;;;;;;;;;;;;16.53;32.35;100543.31;4426431;32;19972;-50
2021/03/07 12:06:51;;;;;;;;;;;;;;;16.60;32.49;100536.50;4428565;32;20036;-52
2021/03/07 12:09:17;;;;;;;;;;;;;;;16.62;32.42;100524.34;4426218;32;20317;-52
2021/03/07 12:11:43;;;;;;;;;;;;;;;16.49;32.87;100523.97;4422229;32;19999;-50
2021/03/07 12:14:09;;;;;;;;;;;;;;;16.50;32.88;100520.47;4426278;32;19954;-48
2021/03/07 12:16:35;;;;;;;;;;;;;;;16.65;32.71;100517.41;4429501;32;20019;-48
2021/03/07 12:19:01;;;;;;;;;;;;;;;16.72;32.48;100503.59;4427323;32;19946;-52
2021/03/07 12:21:27;;;;;;;;;;;;;;;16.75;32.41;100500.19;4425180;32;20049;-48
2021/03/07 12:23:53;;;;;;;;;;;;;;;16.75;32.43;100501.91;4420561;32;19958;-52
2021/03/07 12:26:19;;;;;;;;;;;;;;;16.77;32.43;100493.22;4424351;32;19954;-47
2021/03/07 12:28:45;;;;;;;;;;;;;;;16.76;32.52;100488.81;4422231;32;19985;-50